createdAt,value
2022-09-28T00:01:27.277Z,100.00
2022-09-28T00:03:59.908Z,100.00
2022-09-28T00:06:31.286Z,100.00
2022-09-28T00:09:01.440Z,100.00
2022-09-28T00:11:29.957Z,100.00
2022-09-28T00:14:02.522Z,100.00
2022-09-28T00:16:34.984Z,100.00
2022-09-28T00:19:04.996Z,100.00
2022-09-28T00:21:35.822Z,100.00
2022-09-28T00:24:15.368Z,100.00
2022-09-28T00:26:46.874Z,100.00
2022-09-28T00:29:19.925Z,100.00
2022-09-28T00:31:52.467Z,100.00
2022-09-28T00:34:22.087Z,100.00
2022-09-28T00:36:50.850Z,100.00
2022-09-28T00:39:19.629Z,100.00
2022-09-28T00:41:48.354Z,100.00
2022-09-28T00:44:41.815Z,100.00
2022-09-28T00:47:19.844Z,100.00
2022-09-28T00:49:54.875Z,100.00
2022-09-28T00:52:29.362Z,100.00
2022-09-28T00:55:01.342Z,100.00
2022-09-28T00:57:30.994Z,100.00
2022-09-28T01:00:03.378Z,100.00
2022-09-28T01:02:33.684Z,100.00
2022-09-28T01:05:04.800Z,100.00
2022-09-28T01:07:35.486Z,100.00
2022-09-28T01:10:04.705Z,100.00
2022-09-28T01:12:33.162Z,100.00
2022-09-28T01:15:02.295Z,100.00
2022-09-28T01:17:45.796Z,100.00
2022-09-28T01:20:47.383Z,100.00
2022-09-28T01:23:46.555Z,100.00
2022-09-28T01:26:41.959Z,100.00
2022-09-28T01:29:18.791Z,100.00
2022-09-28T01:31:52.518Z,100.00
2022-09-28T01:34:29.170Z,100.00
2022-09-28T01:37:02.260Z,100.00
2022-09-28T01:39:35.970Z,100.00
2022-09-28T01:42:09.863Z,100.00
2022-09-28T01:44:43.846Z,100.00
2022-09-28T01:47:15.778Z,100.00
2022-09-28T01:49:48.825Z,100.00
2022-09-28T01:52:21.689Z,100.00
2022-09-28T01:54:55.611Z,100.00
2022-09-28T01:57:31.966Z,100.00
2022-09-28T02:00:04.713Z,100.00
2022-09-28T02:02:49.566Z,100.00
2022-09-28T02:05:28.482Z,100.00
2022-09-28T02:08:04.871Z,100.00
2022-09-28T02:10:39.251Z,100.00
2022-09-28T02:13:13.548Z,100.00
2022-09-28T02:15:47.435Z,100.00
2022-09-28T02:18:16.310Z,100.00
2022-09-28T02:20:53.453Z,100.00
2022-09-28T02:23:25.653Z,100.00
2022-09-28T02:26:01.221Z,100.00
2022-09-28T02:28:31.748Z,100.00
2022-09-28T02:31:00.436Z,100.00
2022-09-28T02:33:34.306Z,100.00
2022-09-28T02:36:04.709Z,100.00
2022-09-28T02:38:38.637Z,100.00
2022-09-28T02:41:12.800Z,100.00
2022-09-28T02:43:53.746Z,100.00
2022-09-28T02:46:33.945Z,100.00
2022-09-28T02:49:23.697Z,100.00
2022-09-28T02:52:08.754Z,100.00
2022-09-28T02:55:08.158Z,100.00
2022-09-28T02:57:49.402Z,100.00
2022-09-28T03:00:23.055Z,100.00
2022-09-28T03:03:02.612Z,100.00
2022-09-28T03:05:42.948Z,100.00
2022-09-28T03:08:23.222Z,100.00
2022-09-28T03:10:57.556Z,100.00
2022-09-28T03:13:28.339Z,100.00
2022-09-28T03:16:10.157Z,100.00
2022-09-28T03:18:39.442Z,100.00
2022-09-28T03:21:08.999Z,100.00
2022-09-28T03:23:37.492Z,100.00
2022-09-28T03:26:06.301Z,100.00
2022-09-28T03:28:36.384Z,100.00
2022-09-28T03:31:06.090Z,100.00
2022-09-28T03:33:36.185Z,100.00
2022-09-28T03:36:04.717Z,100.00
2022-09-28T03:38:33.417Z,100.00
2022-09-28T03:41:02.508Z,100.00
2022-09-28T03:43:36.577Z,100.00
2022-09-28T03:46:06.091Z,100.00
2022-09-28T03:48:42.273Z,100.00
2022-09-28T03:51:13.034Z,100.00
2022-09-28T03:53:42.048Z,100.00
2022-09-28T03:56:13.514Z,100.00
2022-09-28T03:58:43.413Z,100.00
2022-09-28T04:04:17.319Z,100.00
2022-09-28T04:06:46.830Z,100.00
2022-09-28T04:09:16.356Z,100.00
2022-09-28T04:12:02.898Z,100.00
2022-09-28T04:14:32.690Z,100.00
2022-09-28T04:17:01.910Z,100.00
2022-09-28T04:19:34.269Z,100.00
2022-09-28T04:22:20.689Z,100.00
2022-09-28T04:24:49.153Z,100.00
2022-09-28T04:27:34.756Z,100.00
2022-09-28T04:30:04.205Z,100.00
2022-09-28T04:32:34.470Z,100.00
2022-09-28T04:35:04.824Z,100.00
2022-09-28T04:37:33.936Z,100.00
2022-09-28T04:40:03.705Z,100.00
2022-09-28T04:42:33.310Z,100.00
2022-09-28T04:45:02.393Z,100.00
2022-09-28T04:47:31.648Z,100.00
2022-09-28T04:50:19.387Z,100.00
2022-09-28T04:53:06.728Z,100.00
2022-09-28T04:55:35.709Z,100.00
2022-09-28T04:58:05.840Z,100.00
2022-09-28T05:00:36.073Z,100.00
2022-09-28T05:03:25.013Z,100.00
2022-09-28T05:06:28.778Z,100.00
2022-09-28T05:09:03.190Z,100.00
2022-09-28T05:11:31.691Z,100.00
2022-09-28T05:14:00.695Z,100.00
2022-09-28T05:16:31.096Z,100.00
2022-09-28T05:19:18.496Z,100.00
2022-09-28T05:21:49.259Z,100.00
2022-09-28T05:24:18.207Z,100.00
2022-09-28T05:26:51.974Z,100.00
2022-09-28T05:29:21.289Z,100.00
2022-09-28T05:32:08.429Z,100.00
2022-09-28T05:34:51.801Z,100.00
2022-09-28T05:37:27.597Z,100.00
2022-09-28T05:39:56.094Z,100.00
2022-09-28T05:42:24.617Z,100.00
2022-09-28T05:44:53.210Z,100.00
2022-09-28T05:47:21.870Z,100.00
2022-09-28T05:49:50.392Z,100.00
2022-09-28T05:52:19.046Z,100.00
2022-09-28T05:54:49.367Z,100.00
2022-09-28T05:57:17.857Z,100.00
2022-09-28T05:59:46.356Z,100.00
2022-09-28T06:02:15.023Z,100.00
2022-09-28T06:04:48.388Z,100.00
2022-09-28T06:07:17.209Z,100.00
2022-09-28T06:09:45.657Z,100.00
2022-09-28T06:12:22.120Z,100.00
2022-09-28T06:14:55.392Z,100.00
2022-09-28T06:17:24.771Z,100.00
2022-09-28T06:20:13.200Z,100.00
2022-09-28T06:23:10.634Z,100.00
2022-09-28T06:25:39.637Z,100.00
2022-09-28T06:28:12.250Z,100.00
2022-09-28T06:30:41.976Z,100.00
2022-09-28T06:33:15.188Z,100.00
2022-09-28T06:35:43.836Z,100.00
2022-09-28T06:38:12.860Z,100.00
2022-09-28T06:40:41.405Z,100.00
2022-09-28T06:43:15.175Z,100.00
2022-09-28T06:46:19.180Z,100.00
2022-09-28T06:49:09.378Z,100.00
2022-09-28T06:51:56.278Z,100.00
2022-09-28T06:54:40.910Z,100.00
2022-09-28T06:57:23.313Z,100.00
2022-09-28T06:59:53.169Z,100.00
2022-09-28T07:02:22.800Z,100.00
2022-09-28T07:05:09.695Z,100.00
2022-09-28T07:07:59.403Z,100.00
2022-09-28T07:11:01.516Z,100.00
2022-09-28T07:13:51.647Z,100.00
2022-09-28T07:16:28.077Z,100.00
2022-09-28T07:18:58.779Z,100.00
2022-09-28T07:21:30.503Z,100.00
2022-09-28T07:24:02.692Z,100.00
2022-09-28T07:26:49.628Z,100.00
2022-09-28T07:29:37.020Z,100.00
2022-09-28T07:32:37.650Z,100.00
2022-09-28T07:35:32.002Z,100.00
2022-09-28T07:38:03.533Z,100.00
2022-09-28T07:40:51.830Z,100.00
2022-09-28T07:43:21.817Z,100.00
2022-09-28T07:45:56.004Z,100.00
2022-09-28T07:48:27.070Z,100.00
2022-09-28T07:51:14.101Z,100.00
2022-09-28T07:54:01.209Z,100.00
2022-09-28T07:56:49.889Z,100.00
2022-09-28T07:59:28.181Z,100.00
2022-09-28T08:02:15.349Z,100.00
2022-09-28T08:04:45.585Z,100.00
2022-09-28T08:07:19.474Z,100.00
2022-09-28T08:09:56.223Z,100.00
2022-09-28T08:12:30.635Z,100.00
2022-09-28T08:15:19.066Z,100.00
2022-09-28T08:18:08.205Z,100.00
2022-09-28T08:20:55.393Z,100.00
2022-09-28T08:23:24.874Z,100.00
2022-09-28T08:25:55.169Z,100.00
2022-09-28T08:28:25.535Z,100.00
2022-09-28T08:31:01.198Z,100.00
2022-09-28T08:33:53.136Z,100.00
2022-09-28T08:36:51.985Z,100.00
2022-09-28T08:39:59.031Z,100.00
2022-09-28T08:42:52.272Z,100.00
2022-09-28T08:45:43.844Z,100.00
2022-09-28T08:48:52.385Z,100.00
2022-09-28T08:51:43.494Z,100.00
2022-09-28T08:54:31.726Z,100.00
2022-09-28T08:57:06.978Z,100.00
2022-09-28T08:59:46.895Z,100.00
2022-09-28T09:02:27.222Z,100.00
2022-09-28T09:05:07.527Z,90.48
2022-09-28T09:08:10.092Z,74.47
2022-09-28T09:10:50.018Z,69.68
2022-09-28T09:13:46.635Z,70.68
2022-09-28T09:16:30.761Z,63.56
2022-09-28T09:19:18.435Z,59.09
2022-09-28T09:22:16.600Z,50.83
2022-09-28T09:24:51.349Z,53.06
2022-09-28T09:27:41.753Z,54.41
2022-09-28T09:30:15.377Z,60.17
2022-09-28T09:33:23.252Z,62.67
2022-09-28T09:36:28.972Z,70.58
2022-09-28T09:39:38.038Z,78.09
2022-09-28T09:42:56.487Z,80.76
2022-09-28T09:46:13.160Z,81.81
2022-09-28T09:49:09.251Z,87.17
2022-09-28T09:51:45.024Z,88.62
2022-09-28T09:54:22.549Z,91.97
2022-09-28T09:56:57.460Z,94.08
2022-09-28T09:59:49.468Z,91.49
2022-09-28T10:02:31.294Z,86.77
2022-09-28T10:05:16.894Z,80.02
2022-09-28T10:07:52.442Z,79.50
2022-09-28T10:10:25.310Z,78.04
2022-09-28T10:12:56.098Z,78.29
2022-09-28T10:15:28.187Z,81.84
2022-09-28T10:18:14.523Z,86.84
2022-09-28T10:21:01.690Z,87.80
2022-09-28T10:23:39.268Z,89.56
2022-09-28T10:26:12.204Z,94.58
2022-09-28T10:28:46.677Z,96.99
2022-09-28T10:31:39.640Z,98.05
2022-09-28T10:34:30.296Z,96.54
2022-09-28T10:37:07.962Z,98.04
2022-09-28T10:39:55.523Z,100.00
2022-09-28T10:42:29.862Z,100.00
2022-09-28T10:45:04.771Z,100.00
2022-09-28T10:47:37.745Z,100.00
2022-09-28T10:50:22.013Z,100.00
2022-09-28T10:52:53.366Z,100.00
2022-09-28T10:55:59.950Z,100.00
2022-09-28T10:58:31.141Z,100.00
2022-09-28T11:01:03.475Z,100.00
2022-09-28T11:03:34.838Z,100.00
2022-09-28T11:06:09.323Z,100.00
2022-09-28T11:08:45.692Z,100.00
2022-09-28T11:11:20.829Z,100.00
2022-09-28T11:14:00.617Z,100.00
2022-09-28T11:16:34.856Z,98.73
2022-09-28T11:19:25.329Z,100.00
2022-09-28T11:21:53.872Z,100.00
2022-09-28T11:24:27.364Z,100.00
2022-09-28T11:27:00.461Z,100.00
2022-09-28T11:29:38.402Z,100.00
2022-09-28T11:32:23.121Z,100.00
2022-09-28T11:35:19.788Z,100.00
2022-09-28T11:38:11.283Z,100.00
2022-09-28T11:41:24.542Z,100.00
2022-09-28T11:44:23.701Z,100.00
2022-09-28T11:47:26.759Z,100.00
2022-09-28T11:50:01.344Z,100.00
2022-09-28T11:52:38.018Z,100.00
2022-09-28T11:55:13.574Z,100.00
2022-09-28T11:57:47.269Z,97.71
2022-09-28T12:00:19.911Z,86.67
2022-09-28T12:02:57.804Z,80.87
2022-09-28T12:05:31.932Z,79.81
2022-09-28T12:08:09.003Z,83.45
2022-09-28T12:11:07.387Z,82.00
2022-09-28T12:14:06.638Z,76.12
2022-09-28T12:17:04.904Z,70.21
2022-09-28T12:19:34.928Z,70.53
2022-09-28T12:22:11.397Z,67.04
2022-09-28T12:24:45.685Z,69.89
2022-09-28T12:27:22.077Z,75.40
2022-09-28T12:29:58.500Z,81.59
2022-09-28T12:32:36.091Z,85.73
2022-09-28T12:35:05.194Z,87.30
2022-09-28T12:37:46.883Z,91.23
2022-09-28T12:40:39.452Z,100.00
2022-09-28T12:43:30.233Z,100.00
2022-09-28T12:46:15.745Z,100.00
2022-09-28T12:52:01.598Z,100.00
2022-09-28T12:54:53.579Z,100.00
2022-09-28T12:57:47.919Z,100.00
2022-09-28T13:00:18.946Z,100.00
2022-09-28T13:03:17.001Z,100.00
2022-09-28T13:06:26.161Z,100.00
2022-09-28T13:09:16.410Z,100.00
2022-09-28T13:11:56.198Z,100.00
2022-09-28T13:14:54.110Z,100.00
2022-09-28T13:17:32.333Z,100.00
2022-09-28T13:20:13.191Z,100.00
2022-09-28T13:22:55.272Z,100.00
2022-09-28T13:25:26.698Z,100.00
2022-09-28T13:28:00.852Z,100.00
2022-09-28T13:30:31.870Z,100.00
2022-09-28T13:33:04.305Z,100.00
2022-09-28T13:35:33.603Z,100.00
2022-09-28T13:38:44.987Z,100.00
2022-09-28T13:41:17.087Z,100.00
2022-09-28T13:44:05.892Z,100.00
2022-09-28T13:46:43.528Z,100.00
2022-09-28T13:49:23.005Z,100.00
2022-09-28T13:52:03.988Z,100.00
2022-09-28T13:54:57.273Z,100.00
2022-09-28T13:57:31.937Z,100.00
2022-09-28T14:00:10.585Z,100.00
2022-09-28T14:02:48.076Z,100.00
2022-09-28T14:05:47.886Z,100.00
2022-09-28T14:08:31.520Z,100.00
2022-09-28T14:11:47.446Z,100.00
2022-09-28T14:14:31.641Z,100.00
2022-09-28T14:17:53.894Z,100.00
2022-09-28T14:20:30.370Z,100.00
2022-09-28T14:23:37.138Z,100.00
2022-09-28T14:26:41.989Z,100.00
2022-09-28T14:29:22.652Z,100.00
2022-09-28T14:31:51.137Z,100.00
2022-09-28T14:34:31.830Z,100.00
2022-09-28T14:37:20.901Z,100.00
2022-09-28T14:40:07.619Z,100.00
2022-09-28T14:42:36.093Z,100.00
2022-09-28T14:45:33.923Z,100.00
2022-09-28T14:48:15.289Z,100.00
2022-09-28T14:50:43.941Z,100.00
2022-09-28T14:53:19.188Z,100.00
2022-09-28T14:55:50.585Z,100.00
2022-09-28T14:58:22.854Z,100.00
2022-09-28T15:00:56.944Z,100.00
2022-09-28T15:03:27.209Z,100.00
2022-09-28T15:05:55.755Z,100.00
2022-09-28T15:08:37.226Z,100.00
2022-09-28T15:11:08.414Z,100.00
2022-09-28T15:13:40.858Z,100.00
2022-09-28T15:16:12.441Z,100.00
2022-09-28T15:19:15.945Z,100.00
2022-09-28T15:21:47.760Z,100.00
2022-09-28T15:24:28.980Z,100.00
2022-09-28T15:26:57.973Z,100.00
2022-09-28T15:29:31.184Z,100.00
2022-09-28T15:32:00.213Z,100.00
2022-09-28T15:34:48.633Z,100.00
2022-09-28T15:37:21.999Z,100.00
2022-09-28T15:39:53.921Z,100.00
2022-09-28T15:42:22.855Z,100.00
2022-09-28T15:45:04.395Z,100.00
2022-09-28T15:47:34.021Z,100.00
2022-09-28T15:50:06.005Z,100.00
2022-09-28T15:52:40.011Z,100.00
2022-09-28T15:55:22.152Z,100.00
2022-09-28T15:57:51.249Z,100.00
2022-09-28T16:00:29.329Z,100.00
2022-09-28T16:03:03.803Z,100.00
2022-09-28T16:05:46.745Z,100.00
2022-09-28T16:08:24.721Z,100.00
2022-09-28T16:10:59.392Z,100.00
2022-09-28T16:13:28.137Z,100.00
2022-09-28T16:16:00.118Z,100.00
2022-09-28T16:18:31.058Z,100.00
2022-09-28T16:21:26.445Z,100.00
2022-09-28T16:23:57.652Z,100.00
2022-09-28T16:26:35.411Z,100.00
2022-09-28T16:29:09.529Z,100.00
2022-09-28T16:31:41.545Z,100.00
2022-09-28T16:34:19.934Z,100.00
2022-09-28T16:36:50.305Z,100.00
2022-09-28T16:39:20.827Z,100.00
2022-09-28T16:41:55.797Z,100.00
2022-09-28T16:44:27.129Z,100.00
2022-09-28T16:47:00.365Z,100.00
2022-09-28T16:49:28.975Z,100.00
2022-09-28T16:51:57.395Z,100.00
2022-09-28T16:54:44.304Z,100.00
2022-09-28T16:57:16.309Z,100.00
2022-09-28T16:59:44.882Z,100.00
2022-09-28T17:02:42.184Z,100.00
2022-09-28T17:05:10.322Z,100.00
2022-09-28T17:07:38.825Z,100.00
2022-09-28T17:10:17.659Z,100.00
2022-09-28T17:12:47.689Z,100.00
2022-09-28T17:15:19.786Z,100.00
2022-09-28T17:17:48.667Z,100.00
2022-09-28T17:20:23.035Z,100.00
2022-09-28T17:22:51.686Z,100.00
2022-09-28T17:25:20.705Z,100.00
2022-09-28T17:27:51.980Z,100.00
2022-09-28T17:30:23.715Z,100.00
2022-09-28T17:32:54.237Z,100.00
2022-09-28T17:35:24.548Z,100.00
2022-09-28T17:37:53.420Z,100.00
2022-09-28T17:40:23.691Z,100.00
2022-09-28T17:42:56.293Z,100.00
2022-09-28T17:45:27.081Z,100.00
2022-09-28T17:47:56.163Z,100.00
2022-09-28T17:50:27.034Z,100.00
2022-09-28T17:52:56.030Z,100.00
2022-09-28T17:55:28.662Z,100.00
2022-09-28T17:57:59.427Z,100.00
2022-09-28T18:00:28.430Z,100.00
2022-09-28T18:02:57.593Z,100.00
2022-09-28T18:05:28.470Z,100.00
2022-09-28T18:07:58.215Z,100.00
2022-09-28T18:10:27.689Z,100.00
2022-09-28T18:12:56.201Z,100.00
2022-09-28T18:15:26.176Z,100.00
2022-09-28T18:17:54.679Z,100.00
2022-09-28T18:20:23.631Z,100.00
2022-09-28T18:22:52.063Z,100.00
2022-09-28T18:25:20.549Z,100.00
2022-09-28T18:27:49.399Z,100.00
2022-09-28T18:30:17.900Z,100.00
2022-09-28T18:32:48.043Z,100.00
2022-09-28T18:35:22.000Z,100.00
2022-09-28T18:37:51.768Z,100.00
2022-09-28T18:40:20.640Z,100.00
2022-09-28T18:42:51.361Z,100.00
2022-09-28T18:45:20.367Z,100.00
2022-09-28T18:47:50.190Z,100.00
2022-09-28T18:50:18.893Z,100.00
2022-09-28T18:52:47.766Z,100.00
2022-09-28T18:55:16.227Z,100.00
2022-09-28T18:57:46.429Z,100.00
2022-09-28T19:00:16.298Z,100.00
2022-09-28T19:02:44.874Z,100.00
2022-09-28T19:05:14.830Z,100.00
2022-09-28T19:07:43.351Z,100.00
2022-09-28T19:10:11.886Z,100.00
2022-09-28T19:12:40.303Z,100.00
2022-09-28T19:15:09.389Z,100.00
2022-09-28T19:17:37.973Z,100.00
2022-09-28T19:20:07.561Z,100.00
2022-09-28T19:22:37.781Z,100.00
2022-09-28T19:25:06.902Z,100.00
2022-09-28T19:27:35.416Z,100.00
2022-09-28T19:30:04.535Z,100.00
2022-09-28T19:32:32.962Z,100.00
2022-09-28T19:35:02.101Z,100.00
2022-09-28T19:37:30.822Z,100.00
2022-09-28T19:40:00.711Z,100.00
2022-09-28T19:42:29.148Z,100.00
2022-09-28T19:44:57.589Z,100.00
2022-09-28T19:47:26.125Z,100.00
2022-09-28T19:49:54.718Z,100.00
2022-09-28T19:52:23.176Z,100.00
2022-09-28T19:54:56.960Z,100.00
2022-09-28T19:57:28.385Z,100.00
2022-09-28T20:00:02.058Z,100.00
2022-09-28T20:02:34.698Z,100.00
2022-09-28T20:05:03.243Z,100.00
2022-09-28T20:07:34.331Z,100.00
2022-09-28T20:10:02.838Z,100.00
2022-09-28T20:12:33.054Z,100.00
2022-09-28T20:15:01.564Z,100.00
2022-09-28T20:17:29.992Z,100.00
2022-09-28T20:19:58.785Z,100.00
2022-09-28T20:22:27.389Z,100.00
2022-09-28T20:24:56.321Z,100.00
2022-09-28T20:27:26.692Z,100.00
2022-09-28T20:29:56.805Z,100.00
2022-09-28T20:32:25.304Z,100.00
2022-09-28T20:34:53.791Z,100.00
2022-09-28T20:37:23.383Z,100.00
2022-09-28T20:39:52.214Z,100.00
2022-09-28T20:42:21.248Z,100.00
2022-09-28T20:44:49.790Z,100.00
2022-09-28T20:47:19.970Z,100.00
2022-09-28T20:49:50.036Z,100.00
2022-09-28T20:52:18.473Z,100.00
2022-09-28T20:54:46.992Z,100.00
2022-09-28T20:57:21.527Z,100.00
2022-09-28T20:59:54.510Z,100.00
2022-09-28T21:02:25.353Z,100.00
2022-09-28T21:04:54.232Z,100.00
2022-09-28T21:07:22.685Z,100.00
2022-09-28T21:09:52.209Z,100.00
2022-09-28T21:12:20.658Z,100.00
2022-09-28T21:14:49.057Z,100.00
2022-09-28T21:17:17.503Z,100.00
2022-09-28T21:19:47.384Z,100.00
2022-09-28T21:22:15.814Z,100.00
2022-09-28T21:24:44.333Z,100.00
2022-09-28T21:27:13.253Z,100.00
2022-09-28T21:29:41.732Z,100.00
2022-09-28T21:32:10.233Z,100.00
2022-09-28T21:34:39.028Z,100.00
2022-09-28T21:37:09.043Z,100.00
2022-09-28T21:39:37.525Z,100.00
2022-09-28T21:42:06.315Z,100.00
2022-09-28T21:44:34.758Z,100.00
2022-09-28T21:47:03.661Z,100.00
2022-09-28T21:49:32.533Z,100.00
2022-09-28T21:52:02.155Z,100.00
2022-09-28T21:54:32.073Z,100.00
2022-09-28T21:57:01.477Z,100.00
2022-09-28T21:59:29.917Z,100.00
2022-09-28T22:01:58.477Z,100.00
2022-09-28T22:04:26.974Z,100.00
2022-09-28T22:06:55.504Z,100.00
2022-09-28T22:09:24.066Z,100.00
2022-09-28T22:11:54.086Z,100.00
2022-09-28T22:14:22.526Z,100.00
2022-09-28T22:16:51.013Z,100.00
2022-09-28T22:19:19.635Z,100.00
2022-09-28T22:21:48.072Z,100.00
2022-09-28T22:24:17.018Z,100.00
2022-09-28T22:26:45.474Z,100.00
2022-09-28T22:29:15.558Z,100.00
2022-09-28T22:31:44.078Z,100.00
2022-09-28T22:34:13.087Z,100.00
2022-09-28T22:36:41.546Z,100.00
2022-09-28T22:39:10.031Z,100.00
2022-09-28T22:41:38.444Z,100.00
2022-09-28T22:44:07.362Z,100.00
2022-09-28T22:46:37.348Z,100.00
2022-09-28T22:49:05.996Z,100.00
2022-09-28T22:51:34.485Z,100.00
2022-09-28T22:54:03.189Z,100.00
2022-09-28T22:56:32.245Z,100.00
2022-09-28T22:59:00.753Z,100.00
2022-09-28T23:01:31.153Z,100.00
2022-09-28T23:04:02.254Z,100.00
2022-09-28T23:06:31.557Z,100.00
2022-09-28T23:09:00.565Z,100.00
2022-09-28T23:11:29.845Z,100.00
2022-09-28T23:13:59.842Z,100.00
2022-09-28T23:16:30.223Z,100.00
2022-09-28T23:19:00.196Z,100.00
2022-09-28T23:21:29.366Z,100.00
2022-09-28T23:24:01.101Z,100.00
2022-09-28T23:26:32.274Z,100.00
2022-09-28T23:29:01.366Z,100.00
2022-09-28T23:31:31.606Z,100.00
2022-09-28T23:34:03.591Z,100.00
2022-09-28T23:36:32.730Z,100.00
2022-09-28T23:39:01.335Z,100.00
2022-09-28T23:41:30.147Z,100.00
2022-09-28T23:43:58.672Z,100.00
2022-09-28T23:46:27.192Z,100.00
2022-09-28T23:48:55.758Z,100.00
2022-09-28T23:51:25.685Z,100.00
2022-09-28T23:53:54.155Z,100.00
2022-09-28T23:56:22.768Z,100.00
2022-09-28T23:58:51.186Z,100.00
